Altamahaw, North Carolina
Current Conditions -  °F | °C
As of 8:54 AM on Sunday 23 Nov 2014 (Local Time) from KBUY Reporting Station
Broken Clouds Broken Clouds  
Wind Chill: 45°   Ceiling: 8000
Heat Index: 45°   Visibility: 10mi
Dew Point: 28°   Wind: 0mph
Humidity: 52%   Direction: NA
Pressure: 30.24"   Gusts: NA
Location:  36.18°N, 79.51°W
Report Text: KBUY 231354Z AUTO 00000KT 10SM FEW010 FEW050 BKN080 07/M02 A3024 RMK AO2 SLP241 T00721022
Loading
Personal Weather Stations






























Interactive Weather Map New forecast layout! Learn more

10-Day Weather Forecast

Advertisements
Track Severe Weather on mobile